sensor_id;sensor_type;location;lat;lon;timestamp;temperature;humidity
4090;DHT22;2059;48.538;12.146;2023-04-06T00:04:17;1.70;87.30
4090;DHT22;2059;48.538;12.146;2023-04-06T00:09:19;1.70;87.20
4090;DHT22;2059;48.538;12.146;2023-04-06T00:14:22;1.80;87.30
4090;DHT22;2059;48.538;12.146;2023-04-06T00:19:24;1.60;87.40
4090;DHT22;2059;48.538;12.146;2023-04-06T00:24:26;1.20;88.50
4090;DHT22;2059;48.538;12.146;2023-04-06T00:29:29;1.00;90.10
4090;DHT22;2059;48.538;12.146;2023-04-06T00:34:31;1.00;90.20
4090;DHT22;2059;48.538;12.146;2023-04-06T00:39:33;0.80;90.40
4090;DHT22;2059;48.538;12.146;2023-04-06T00:44:36;0.80;90.60
4090;DHT22;2059;48.538;12.146;2023-04-06T00:49:38;0.80;90.80
4090;DHT22;2059;48.538;12.146;2023-04-06T00:54:41;0.80;90.10
4090;DHT22;2059;48.538;12.146;2023-04-06T00:59:44;0.70;90.20
4090;DHT22;2059;48.538;12.146;2023-04-06T01:04:46;0.30;90.80
4090;DHT22;2059;48.538;12.146;2023-04-06T01:09:48;0.60;90.70
4090;DHT22;2059;48.538;12.146;2023-04-06T01:14:52;0.60;90.80
4090;DHT22;2059;48.538;12.146;2023-04-06T01:19:53;0.80;90.40
4090;DHT22;2059;48.538;12.146;2023-04-06T01:24:57;0.60;90.80
4090;DHT22;2059;48.538;12.146;2023-04-06T01:29:59;0.20;91.20
4090;DHT22;2059;48.538;12.146;2023-04-06T01:35:01;0.20;91.70
4090;DHT22;2059;48.538;12.146;2023-04-06T01:40:05;0.60;91.30
4090;DHT22;2059;48.538;12.146;2023-04-06T01:45:08;0.60;91.20
4090;DHT22;2059;48.538;12.146;2023-04-06T01:50:10;0.70;91.20
4090;DHT22;2059;48.538;12.146;2023-04-06T01:55:14;0.80;90.80
4090;DHT22;2059;48.538;12.146;2023-04-06T02:00:16;0.40;91.50
4090;DHT22;2059;48.538;12.146;2023-04-06T02:05:18;0.50;91.40
4090;DHT22;2059;48.538;12.146;2023-04-06T02:10:22;0.30;91.70
4090;DHT22;2059;48.538;12.146;2023-04-06T02:15:24;0.20;92.20
4090;DHT22;2059;48.538;12.146;2023-04-06T02:20:26;0.50;91.80
4090;DHT22;2059;48.538;12.146;2023-04-06T02:25:29;0.50;91.90
4090;DHT22;2059;48.538;12.146;2023-04-06T02:30:31;0.40;91.90
4090;DHT22;2059;48.538;12.146;2023-04-06T02:35:33;0.30;92.10
4090;DHT22;2059;48.538;12.146;2023-04-06T02:40:36;0.50;91.80
4090;DHT22;2059;48.538;12.146;2023-04-06T02:45:38;0.50;91.60
4090;DHT22;2059;48.538;12.146;2023-04-06T02:50:40;0.20;92.20
4090;DHT22;2059;48.538;12.146;2023-04-06T02:55:43;0.20;92.50
4090;DHT22;2059;48.538;12.146;2023-04-06T03:00:45;0.00;93.00
4090;DHT22;2059;48.538;12.146;2023-04-06T03:05:47;-0.30;93.70
4090;DHT22;2059;48.538;12.146;2023-04-06T03:10:50;-0.40;94.20
4090;DHT22;2059;48.538;12.146;2023-04-06T03:15:52;-0.10;94.00
4090;DHT22;2059;48.538;12.146;2023-04-06T03:20:54;0.30;93.20
4090;DHT22;2059;48.538;12.146;2023-04-06T03:25:57;0.30;93.00
4090;DHT22;2059;48.538;12.146;2023-04-06T03:30:59;0.10;93.30
4090;DHT22;2059;48.538;12.146;2023-04-06T03:36:01;-0.10;93.90
4090;DHT22;2059;48.538;12.146;2023-04-06T03:41:04;-0.30;94.00
4090;DHT22;2059;48.538;12.146;2023-04-06T03:46:05;0.10;93.30
4090;DHT22;2059;48.538;12.146;2023-04-06T03:51:07;0.10;92.70
4090;DHT22;2059;48.538;12.146;2023-04-06T03:56:10;-0.10;93.10
4090;DHT22;2059;48.538;12.146;2023-04-06T04:01:12;-0.40;93.40
4090;DHT22;2059;48.538;12.146;2023-04-06T04:06:14;-0.50;93.70
4090;DHT22;2059;48.538;12.146;2023-04-06T04:11:17;-0.60;94.00
4090;DHT22;2059;48.538;12.146;2023-04-06T04:16:19;-0.40;94.20
4090;DHT22;2059;48.538;12.146;2023-04-06T04:21:21;-0.50;93.90
4090;DHT22;2059;48.538;12.146;2023-04-06T04:26:24;-1.00;94.80
4090;DHT22;2059;48.538;12.146;2023-04-06T04:31:26;-0.50;94.60
4090;DHT22;2059;48.538;12.146;2023-04-06T04:36:27;-0.60;94.40
4090;DHT22;2059;48.538;12.146;2023-04-06T04:41:30;-1.10;95.40
4090;DHT22;2059;48.538;12.146;2023-04-06T04:46:32;-0.90;95.80
4090;DHT22;2059;48.538;12.146;2023-04-06T04:51:34;-0.60;95.20
4090;DHT22;2059;48.538;12.146;2023-04-06T04:56:38;-0.60;95.20
4090;DHT22;2059;48.538;12.146;2023-04-06T05:01:39;-0.40;94.90
4090;DHT22;2059;48.538;12.146;2023-04-06T05:06:41;-0.60;95.20
4090;DHT22;2059;48.538;12.146;2023-04-06T05:11:44;-0.40;95.40
4090;DHT22;2059;48.538;12.146;2023-04-06T05:16:46;-0.50;95.60
4090;DHT22;2059;48.538;12.146;2023-04-06T05:21:48;-0.40;95.70
4090;DHT22;2059;48.538;12.146;2023-04-06T05:26:51;-0.30;95.60
4090;DHT22;2059;48.538;12.146;2023-04-06T05:31:53;-0.50;95.70
4090;DHT22;2059;48.538;12.146;2023-04-06T05:36:54;0.00;95.50
4090;DHT22;2059;48.538;12.146;2023-04-06T05:41:58;0.40;95.10
4090;DHT22;2059;48.538;12.146;2023-04-06T05:47:00;1.10;94.30
4090;DHT22;2059;48.538;12.146;2023-04-06T05:52:01;1.40;94.10
4090;DHT22;2059;48.538;12.146;2023-04-06T05:57:05;1.90;93.40
4090;DHT22;2059;48.538;12.146;2023-04-06T06:02:07;2.40;92.90
4090;DHT22;2059;48.538;12.146;2023-04-06T06:07:09;2.40;93.10
4090;DHT22;2059;48.538;12.146;2023-04-06T06:12:12;2.50;92.60
4090;DHT22;2059;48.538;12.146;2023-04-06T06:17:14;2.60;92.70
4090;DHT22;2059;48.538;12.146;2023-04-06T06:22:16;3.00;92.20
4090;DHT22;2059;48.538;12.146;2023-04-06T06:27:19;3.10;92.30
4090;DHT22;2059;48.538;12.146;2023-04-06T06:32:21;3.40;92.00
4090;DHT22;2059;48.538;12.146;2023-04-06T06:37:23;3.70;91.00
4090;DHT22;2059;48.538;12.146;2023-04-06T06:42:26;3.90;90.80
4090;DHT22;2059;48.538;12.146;2023-04-06T06:47:27;4.00;90.50
4090;DHT22;2059;48.538;12.146;2023-04-06T06:52:29;4.20;90.90
4090;DHT22;2059;48.538;12.146;2023-04-06T06:57:32;4.60;90.00
4090;DHT22;2059;48.538;12.146;2023-04-06T07:02:34;4.90;89.80
4090;DHT22;2059;48.538;12.146;2023-04-06T07:07:37;5.30;89.20
4090;DHT22;2059;48.538;12.146;2023-04-06T07:12:40;5.40;88.60
4090;DHT22;2059;48.538;12.146;2023-04-06T07:17:42;5.70;88.30
4090;DHT22;2059;48.538;12.146;2023-04-06T07:22:45;6.20;87.40
4090;DHT22;2059;48.538;12.146;2023-04-06T07:27:48;6.50;85.90
4090;DHT22;2059;48.538;12.146;2023-04-06T07:32:50;6.50;85.70
4090;DHT22;2059;48.538;12.146;2023-04-06T07:37:52;7.20;84.40
4090;DHT22;2059;48.538;12.146;2023-04-06T07:42:55;7.30;83.40
4090;DHT22;2059;48.538;12.146;2023-04-06T07:47:57;7.40;81.50
4090;DHT22;2059;48.538;12.146;2023-04-06T07:52:59;7.90;81.20
4090;DHT22;2059;48.538;12.146;2023-04-06T07:58:02;8.00;80.80
4090;DHT22;2059;48.538;12.146;2023-04-06T08:03:04;8.50;79.10
4090;DHT22;2059;48.538;12.146;2023-04-06T08:08:05;8.80;78.30
4090;DHT22;2059;48.538;12.146;2023-04-06T08:13:08;9.10;78.30
4090;DHT22;2059;48.538;12.146;2023-04-06T08:18:10;9.40;76.50
4090;DHT22;2059;48.538;12.146;2023-04-06T08:23:12;9.60;74.00
4090;DHT22;2059;48.538;12.146;2023-04-06T08:28:15;9.80;74.00
4090;DHT22;2059;48.538;12.146;2023-04-06T08:33:17;10.10;71.70
4090;DHT22;2059;48.538;12.146;2023-04-06T08:38:19;10.50;72.10
4090;DHT22;2059;48.538;12.146;2023-04-06T08:43:22;10.80;68.60
4090;DHT22;2059;48.538;12.146;2023-04-06T08:48:25;10.70;65.70
4090;DHT22;2059;48.538;12.146;2023-04-06T08:53:27;10.70;64.60
4090;DHT22;2059;48.538;12.146;2023-04-06T08:58:33;11.10;65.20
4090;DHT22;2059;48.538;12.146;2023-04-06T09:03:37;11.50;59.70
4090;DHT22;2059;48.538;12.146;2023-04-06T09:08:40;11.40;58.20
4090;DHT22;2059;48.538;12.146;2023-04-06T09:13:49;11.60;58.00
4090;DHT22;2059;48.538;12.146;2023-04-06T09:18:51;11.20;55.40
4090;DHT22;2059;48.538;12.146;2023-04-06T09:23:58;11.50;57.40
4090;DHT22;2059;48.538;12.146;2023-04-06T09:29:02;12.20;55.30
4090;DHT22;2059;48.538;12.146;2023-04-06T09:34:04;11.90;54.30
4090;DHT22;2059;48.538;12.146;2023-04-06T09:39:06;11.80;53.70
4090;DHT22;2059;48.538;12.146;2023-04-06T09:44:10;11.30;52.60
4090;DHT22;2059;48.538;12.146;2023-04-06T09:49:13;11.40;55.20
4090;DHT22;2059;48.538;12.146;2023-04-06T09:54:18;11.70;53.90
4090;DHT22;2059;48.538;12.146;2023-04-06T09:59:29;12.00;52.70
4090;DHT22;2059;48.538;12.146;2023-04-06T10:04:38;12.80;52.30
4090;DHT22;2059;48.538;12.146;2023-04-06T10:09:45;12.30;51.40
4090;DHT22;2059;48.538;12.146;2023-04-06T10:14:49;12.50;52.10
4090;DHT22;2059;48.538;12.146;2023-04-06T10:19:55;13.30;52.50
4090;DHT22;2059;48.538;12.146;2023-04-06T10:24:59;13.20;49.40
4090;DHT22;2059;48.538;12.146;2023-04-06T10:30:05;13.30;49.70
4090;DHT22;2059;48.538;12.146;2023-04-06T10:35:08;13.10;50.10
4090;DHT22;2059;48.538;12.146;2023-04-06T10:40:18;14.00;49.90
4090;DHT22;2059;48.538;12.146;2023-04-06T10:45:23;14.30;47.50
4090;DHT22;2059;48.538;12.146;2023-04-06T10:50:25;13.00;48.20
4090;DHT22;2059;48.538;12.146;2023-04-06T10:55:27;11.70;50.40
4090;DHT22;2059;48.538;12.146;2023-04-06T11:00:31;12.60;50.30
4090;DHT22;2059;48.538;12.146;2023-04-06T11:05:33;12.60;51.20
4090;DHT22;2059;48.538;12.146;2023-04-06T11:10:34;12.70;49.90
4090;DHT22;2059;48.538;12.146;2023-04-06T11:15:38;13.00;49.60
4090;DHT22;2059;48.538;12.146;2023-04-06T11:20:40;13.80;51.20
4090;DHT22;2059;48.538;12.146;2023-04-06T11:25:50;13.90;47.70
4090;DHT22;2059;48.538;12.146;2023-04-06T11:30:53;14.40;46.50
4090;DHT22;2059;48.538;12.146;2023-04-06T11:35:57;15.10;48.30
4090;DHT22;2059;48.538;12.146;2023-04-06T11:41:00;15.20;46.70
4090;DHT22;2059;48.538;12.146;2023-04-06T11:46:04;14.60;46.90
4090;DHT22;2059;48.538;12.146;2023-04-06T11:51:07;14.40;46.90
4090;DHT22;2059;48.538;12.146;2023-04-06T11:56:08;14.90;46.90
4090;DHT22;2059;48.538;12.146;2023-04-06T12:01:11;16.10;45.80
4090;DHT22;2059;48.538;12.146;2023-04-06T12:06:13;15.10;46.80
4090;DHT22;2059;48.538;12.146;2023-04-06T12:11:15;15.10;45.60
4090;DHT22;2059;48.538;12.146;2023-04-06T12:16:18;15.90;45.20
4090;DHT22;2059;48.538;12.146;2023-04-06T12:21:20;16.70;43.80
4090;DHT22;2059;48.538;12.146;2023-04-06T12:26:22;17.70;45.90
4090;DHT22;2059;48.538;12.146;2023-04-06T12:31:25;16.80;44.40
4090;DHT22;2059;48.538;12.146;2023-04-06T12:36:27;16.80;44.50
4090;DHT22;2059;48.538;12.146;2023-04-06T12:41:29;16.40;45.00
4090;DHT22;2059;48.538;12.146;2023-04-06T12:46:32;15.60;45.70
4090;DHT22;2059;48.538;12.146;2023-04-06T12:51:34;15.10;45.80
4090;DHT22;2059;48.538;12.146;2023-04-06T12:56:36;15.90;46.00
4090;DHT22;2059;48.538;12.146;2023-04-06T13:01:39;16.30;43.50
4090;DHT22;2059;48.538;12.146;2023-04-06T13:06:41;16.40;43.80
4090;DHT22;2059;48.538;12.146;2023-04-06T13:11:42;16.40;42.20
4090;DHT22;2059;48.538;12.146;2023-04-06T13:16:46;15.80;43.50
4090;DHT22;2059;48.538;12.146;2023-04-06T13:21:48;15.90;44.30
4090;DHT22;2059;48.538;12.146;2023-04-06T13:26:50;15.60;44.40
4090;DHT22;2059;48.538;12.146;2023-04-06T13:31:53;15.40;43.10
4090;DHT22;2059;48.538;12.146;2023-04-06T13:36:54;14.50;44.40
4090;DHT22;2059;48.538;12.146;2023-04-06T13:41:56;14.90;45.70
4090;DHT22;2059;48.538;12.146;2023-04-06T13:46:59;15.20;43.90
4090;DHT22;2059;48.538;12.146;2023-04-06T13:52:01;15.10;44.20
4090;DHT22;2059;48.538;12.146;2023-04-06T13:57:03;14.70;45.50
4090;DHT22;2059;48.538;12.146;2023-04-06T14:02:08;15.20;45.00
4090;DHT22;2059;48.538;12.146;2023-04-06T14:07:10;15.60;43.50
4090;DHT22;2059;48.538;12.146;2023-04-06T14:12:12;15.80;42.40
4090;DHT22;2059;48.538;12.146;2023-04-06T14:17:15;15.90;44.10
4090;DHT22;2059;48.538;12.146;2023-04-06T14:22:17;15.80;44.40
4090;DHT22;2059;48.538;12.146;2023-04-06T14:27:19;16.00;43.20
4090;DHT22;2059;48.538;12.146;2023-04-06T14:32:22;16.10;42.80
4090;DHT22;2059;48.538;12.146;2023-04-06T14:37:25;15.70;43.10
4090;DHT22;2059;48.538;12.146;2023-04-06T14:42:27;15.50;43.50
4090;DHT22;2059;48.538;12.146;2023-04-06T14:47:30;15.10;44.10
4090;DHT22;2059;48.538;12.146;2023-04-06T14:52:33;15.10;42.80
4090;DHT22;2059;48.538;12.146;2023-04-06T14:57:35;14.80;44.10
4090;DHT22;2059;48.538;12.146;2023-04-06T15:02:39;15.00;44.20
4090;DHT22;2059;48.538;12.146;2023-04-06T15:07:43;15.50;43.80
4090;DHT22;2059;48.538;12.146;2023-04-06T15:12:45;15.50;42.70
4090;DHT22;2059;48.538;12.146;2023-04-06T15:17:48;15.30;42.80
4090;DHT22;2059;48.538;12.146;2023-04-06T15:22:50;14.90;43.40
4090;DHT22;2059;48.538;12.146;2023-04-06T15:27:53;14.80;43.10
4090;DHT22;2059;48.538;12.146;2023-04-06T15:32:59;16.30;43.40
4090;DHT22;2059;48.538;12.146;2023-04-06T15:38:02;17.80;41.40
4090;DHT22;2059;48.538;12.146;2023-04-06T15:43:04;20.20;38.50
4090;DHT22;2059;48.538;12.146;2023-04-06T15:48:07;23.00;35.70
4090;DHT22;2059;48.538;12.146;2023-04-06T15:53:09;24.70;34.00
4090;DHT22;2059;48.538;12.146;2023-04-06T15:58:12;21.70;35.20
4090;DHT22;2059;48.538;12.146;2023-04-06T16:03:15;18.50;36.30
4090;DHT22;2059;48.538;12.146;2023-04-06T16:08:17;16.70;38.10
4090;DHT22;2059;48.538;12.146;2023-04-06T16:13:19;15.80;39.80
4090;DHT22;2059;48.538;12.146;2023-04-06T16:18:22;15.20;40.50
4090;DHT22;2059;48.538;12.146;2023-04-06T16:23:24;15.30;40.40
4090;DHT22;2059;48.538;12.146;2023-04-06T16:28:27;15.10;41.40
4090;DHT22;2059;48.538;12.146;2023-04-06T16:33:30;14.30;41.80
4090;DHT22;2059;48.538;12.146;2023-04-06T16:38:32;14.70;41.70
4090;DHT22;2059;48.538;12.146;2023-04-06T16:43:35;14.80;41.30
4090;DHT22;2059;48.538;12.146;2023-04-06T16:48:38;14.40;41.70
4090;DHT22;2059;48.538;12.146;2023-04-06T16:53:40;14.00;41.40
4090;DHT22;2059;48.538;12.146;2023-04-06T16:58:41;13.60;42.80
4090;DHT22;2059;48.538;12.146;2023-04-06T17:03:45;13.30;43.60
4090;DHT22;2059;48.538;12.146;2023-04-06T17:08:48;13.30;43.70
4090;DHT22;2059;48.538;12.146;2023-04-06T17:13:50;12.90;44.00
4090;DHT22;2059;48.538;12.146;2023-04-06T17:18:53;12.70;44.20
4090;DHT22;2059;48.538;12.146;2023-04-06T17:23:55;12.50;44.90
4090;DHT22;2059;48.538;12.146;2023-04-06T17:28:57;12.20;44.90
4090;DHT22;2059;48.538;12.146;2023-04-06T17:34:00;12.00;45.30
4090;DHT22;2059;48.538;12.146;2023-04-06T17:39:01;11.90;45.30
4090;DHT22;2059;48.538;12.146;2023-04-06T17:44:04;11.80;45.40
4090;DHT22;2059;48.538;12.146;2023-04-06T17:49:07;11.50;46.10
4090;DHT22;2059;48.538;12.146;2023-04-06T17:54:09;11.40;46.50
4090;DHT22;2059;48.538;12.146;2023-04-06T17:59:10;11.20;46.90
4090;DHT22;2059;48.538;12.146;2023-04-06T18:04:13;11.20;47.20
4090;DHT22;2059;48.538;12.146;2023-04-06T18:09:15;11.10;48.80
4090;DHT22;2059;48.538;12.146;2023-04-06T18:14:17;10.70;49.70
4090;DHT22;2059;48.538;12.146;2023-04-06T18:19:20;10.70;50.70
4090;DHT22;2059;48.538;12.146;2023-04-06T18:24:22;10.60;50.40
4090;DHT22;2059;48.538;12.146;2023-04-06T18:29:23;10.60;50.70
4090;DHT22;2059;48.538;12.146;2023-04-06T18:34:26;10.30;51.20
4090;DHT22;2059;48.538;12.146;2023-04-06T18:39:28;10.10;51.70
4090;DHT22;2059;48.538;12.146;2023-04-06T18:44:30;10.00;52.10
4090;DHT22;2059;48.538;12.146;2023-04-06T18:49:33;9.90;54.00
4090;DHT22;2059;48.538;12.146;2023-04-06T18:54:35;9.80;54.80
4090;DHT22;2059;48.538;12.146;2023-04-06T18:59:37;9.70;55.80
4090;DHT22;2059;48.538;12.146;2023-04-06T19:04:40;9.50;57.20
4090;DHT22;2059;48.538;12.146;2023-04-06T19:09:42;9.30;58.70
4090;DHT22;2059;48.538;12.146;2023-04-06T19:14:43;9.10;59.40
4090;DHT22;2059;48.538;12.146;2023-04-06T19:19:52;8.90;60.10
4090;DHT22;2059;48.538;12.146;2023-04-06T19:24:54;8.60;62.00
4090;DHT22;2059;48.538;12.146;2023-04-06T19:29:56;8.20;62.90
4090;DHT22;2059;48.538;12.146;2023-04-06T19:35:00;8.20;64.20
4090;DHT22;2059;48.538;12.146;2023-04-06T19:40:06;8.20;64.20
4090;DHT22;2059;48.538;12.146;2023-04-06T19:45:10;8.20;64.50
4090;DHT22;2059;48.538;12.146;2023-04-06T19:50:13;8.30;64.70
4090;DHT22;2059;48.538;12.146;2023-04-06T19:55:15;8.10;65.20
4090;DHT22;2059;48.538;12.146;2023-04-06T20:00:17;7.90;65.80
4090;DHT22;2059;48.538;12.146;2023-04-06T20:05:20;7.80;66.60
4090;DHT22;2059;48.538;12.146;2023-04-06T20:10:22;7.80;66.90
4090;DHT22;2059;48.538;12.146;2023-04-06T20:15:25;7.50;67.90
4090;DHT22;2059;48.538;12.146;2023-04-06T20:20:28;7.30;68.30
4090;DHT22;2059;48.538;12.146;2023-04-06T20:25:30;7.40;68.70
4090;DHT22;2059;48.538;12.146;2023-04-06T20:30:32;6.80;71.40
4090;DHT22;2059;48.538;12.146;2023-04-06T20:35:35;6.80;70.30
4090;DHT22;2059;48.538;12.146;2023-04-06T20:40:37;7.00;70.00
4090;DHT22;2059;48.538;12.146;2023-04-06T20:45:39;6.70;71.50
4090;DHT22;2059;48.538;12.146;2023-04-06T20:50:43;6.30;73.20
4090;DHT22;2059;48.538;12.146;2023-04-06T20:55:44;6.50;72.20
4090;DHT22;2059;48.538;12.146;2023-04-06T21:00:46;6.40;72.70
4090;DHT22;2059;48.538;12.146;2023-04-06T21:05:53;6.40;72.90
4090;DHT22;2059;48.538;12.146;2023-04-06T21:10:56;6.50;72.80
4090;DHT22;2059;48.538;12.146;2023-04-06T21:15:58;6.50;72.90
4090;DHT22;2059;48.538;12.146;2023-04-06T21:21:02;6.40;73.40
4090;DHT22;2059;48.538;12.146;2023-04-06T21:26:04;5.80;74.40
4090;DHT22;2059;48.538;12.146;2023-04-06T21:31:06;5.50;75.40
4090;DHT22;2059;48.538;12.146;2023-04-06T21:36:10;5.30;76.60
4090;DHT22;2059;48.538;12.146;2023-04-06T21:41:11;4.90;77.80
4090;DHT22;2059;48.538;12.146;2023-04-06T21:46:13;4.80;78.80
4090;DHT22;2059;48.538;12.146;2023-04-06T21:51:17;5.20;77.40
4090;DHT22;2059;48.538;12.146;2023-04-06T21:56:19;5.30;77.70
4090;DHT22;2059;48.538;12.146;2023-04-06T22:01:22;5.30;78.00
4090;DHT22;2059;48.538;12.146;2023-04-06T22:06:25;5.10;78.10
4090;DHT22;2059;48.538;12.146;2023-04-06T22:11:26;5.30;77.50
4090;DHT22;2059;48.538;12.146;2023-04-06T22:16:28;5.40;78.00
4090;DHT22;2059;48.538;12.146;2023-04-06T22:21:32;5.40;77.00
4090;DHT22;2059;48.538;12.146;2023-04-06T22:26:34;5.20;77.60
4090;DHT22;2059;48.538;12.146;2023-04-06T22:31:36;5.30;77.50
4090;DHT22;2059;48.538;12.146;2023-04-06T22:36:39;5.40;77.50
4090;DHT22;2059;48.538;12.146;2023-04-06T22:41:41;5.10;78.10
4090;DHT22;2059;48.538;12.146;2023-04-06T22:46:43;4.80;79.80
4090;DHT22;2059;48.538;12.146;2023-04-06T22:51:46;4.90;78.80
4090;DHT22;2059;48.538;12.146;2023-04-06T22:56:47;4.90;79.30
4090;DHT22;2059;48.538;12.146;2023-04-06T23:01:50;4.70;79.90
4090;DHT22;2059;48.538;12.146;2023-04-06T23:06:53;4.70;79.60
4090;DHT22;2059;48.538;12.146;2023-04-06T23:11:54;4.70;79.10
4090;DHT22;2059;48.538;12.146;2023-04-06T23:16:56;4.80;79.10
4090;DHT22;2059;48.538;12.146;2023-04-06T23:21:59;4.70;79.70
4090;DHT22;2059;48.538;12.146;2023-04-06T23:27:01;4.10;82.50
4090;DHT22;2059;48.538;12.146;2023-04-06T23:32:03;4.10;82.30
4090;DHT22;2059;48.538;12.146;2023-04-06T23:37:07;4.20;82.60
4090;DHT22;2059;48.538;12.146;2023-04-06T23:42:08;4.40;81.60
4090;DHT22;2059;48.538;12.146;2023-04-06T23:47:10;4.40;82.20
4090;DHT22;2059;48.538;12.146;2023-04-06T23:52:13;3.90;84.70
4090;DHT22;2059;48.538;12.146;2023-04-06T23:57:15;3.90;84.40
